Time;durP1;ratioP1;P1;durP2;ratioP2;P2;SDS_P1;SDS_P2;PMS_P1;PMS_P2;Temp;Humidity;BMP_temperature;BMP_pressure;BME280_temperature;BME280_humidity;BME280_pressure;Samples;Min_cycle;Max_cycle;Signal;HPM_P1;HPM_P2
2020/12/14 00:01:05;;;;;;;12.43;5.97;;;3.60;85.40;;;;;;5056034;28;20036;-44
2020/12/14 00:03:34;;;;;;;13.90;6.28;;;3.60;85.80;;;;;;5056140;28;20045;-45
2020/12/14 00:06:00;;;;;;;12.10;6.38;;;3.70;85.70;;;;;;5037470;28;20041;-47
2020/12/14 00:08:26;;;;;;;10.85;5.40;;;3.70;85.50;;;;;;5036139;28;20029;-43
2020/12/14 00:10:51;;;;;;;11.30;6.13;;;3.70;85.00;;;;;;5035860;28;20044;-47
2020/12/14 00:13:17;;;;;;;10.52;5.82;;;3.70;84.80;;;;;;5035728;28;20040;-45
2020/12/14 00:15:43;;;;;;;9.98;5.07;;;3.70;84.90;;;;;;5035425;28;20140;-45
2020/12/14 00:18:09;;;;;;;10.73;6.30;;;3.60;85.30;;;;;;5035986;28;20030;-46
2020/12/14 00:20:35;;;;;;;11.85;5.40;;;3.40;85.90;;;;;;5053007;28;20440;-45
2020/12/14 00:23:00;;;;;;;13.85;5.90;;;3.40;86.40;;;;;;5039158;28;20030;-45
2020/12/14 00:25:26;;;;;;;9.82;5.03;;;3.30;86.90;;;;;;5034312;28;20037;-44
2020/12/14 00:27:52;;;;;;;13.52;6.43;;;3.20;87.20;;;;;;5035192;28;20091;-42
2020/12/14 00:30:18;;;;;;;19.55;6.68;;;3.40;87.20;;;;;;5035555;28;20065;-45
2020/12/14 00:32:44;;;;;;;11.48;6.00;;;3.50;86.80;;;;;;5035264;28;20041;-44
2020/12/14 00:35:10;;;;;;;14.60;6.18;;;3.50;86.50;;;;;;5035371;28;20486;-45
2020/12/14 00:37:36;;;;;;;10.23;5.47;;;3.60;86.30;;;;;;5035511;28;20032;-44
2020/12/14 00:40:02;;;;;;;13.55;5.68;;;3.60;86.10;;;;;;5034641;28;20043;-48
2020/12/14 00:42:27;;;;;;;14.57;5.85;;;3.60;85.60;;;;;;5034005;28;20449;-43
2020/12/14 00:44:53;;;;;;;9.07;5.45;;;3.70;85.40;;;;;;5035142;28;20041;-44
2020/12/14 00:47:19;;;;;;;14.35;6.03;;;3.70;85.30;;;;;;5034116;28;20025;-45
2020/12/14 00:49:45;;;;;;;10.98;5.05;;;3.70;85.20;;;;;;5034858;28;20034;-44
2020/12/14 00:52:10;;;;;;;11.82;5.50;;;3.70;85.00;;;;;;5035681;28;20037;-46
2020/12/14 00:54:36;;;;;;;11.95;5.72;;;3.70;85.00;;;;;;5034025;28;20170;-44
2020/12/14 00:57:03;;;;;;;12.57;6.05;;;3.70;84.70;;;;;;5048877;28;20029;-44
2020/12/14 00:59:29;;;;;;;9.93;5.57;;;3.70;84.60;;;;;;5053598;28;20070;-46
2020/12/14 01:01:55;;;;;;;11.77;5.63;;;3.70;84.90;;;;;;5055085;28;20114;-46
2020/12/14 01:04:21;;;;;;;10.70;5.70;;;3.70;84.80;;;;;;5049669;28;20037;-45
2020/12/14 01:06:51;;;;;;;13.45;6.10;;;3.70;84.80;;;;;;5034755;28;20052;-48
2020/12/14 01:09:17;;;;;;;11.13;5.55;;;3.70;84.90;;;;;;5035256;28;20029;-47
2020/12/14 01:11:43;;;;;;;9.73;5.30;;;3.60;84.80;;;;;;5034406;28;20036;-50
2020/12/14 01:14:09;;;;;;;11.05;6.50;;;3.60;84.50;;;;;;5033908;28;20363;-46
2020/12/14 01:16:35;;;;;;;9.27;5.22;;;3.60;84.50;;;;;;5034541;28;20053;-44
2020/12/14 01:19:00;;;;;;;9.10;5.30;;;3.50;84.60;;;;;;5034534;28;20052;-48
2020/12/14 01:21:26;;;;;;;8.82;4.90;;;3.60;84.40;;;;;;5034635;28;20037;-46
2020/12/14 01:23:52;;;;;;;7.90;5.20;;;3.50;84.30;;;;;;5033142;28;20045;-45
2020/12/14 01:26:18;;;;;;;10.18;5.68;;;3.40;84.50;;;;;;5034485;28;20477;-43
2020/12/14 01:28:44;;;;;;;11.93;6.38;;;3.40;84.60;;;;;;5033303;28;20056;-47
2020/12/14 01:31:10;;;;;;;10.77;5.47;;;3.40;84.50;;;;;;5050632;28;20033;-44
2020/12/14 01:33:36;;;;;;;9.05;4.80;;;3.50;84.10;;;;;;5054439;28;20520;-44
2020/12/14 01:36:02;;;;;;;9.45;4.95;;;3.40;84.10;;;;;;5054015;28;20037;-44
2020/12/14 01:38:28;;;;;;;11.48;5.38;;;3.40;84.20;;;;;;5052875;28;20032;-45
2020/12/14 01:40:54;;;;;;;7.97;4.95;;;3.40;84.20;;;;;;5054142;28;20488;-44
2020/12/14 01:43:22;;;;;;;8.38;4.80;;;3.30;84.30;;;;;;5053898;28;20080;-43
2020/12/14 01:45:50;;;;;;;9.02;4.97;;;3.30;84.20;;;;;;5054135;28;20393;-45
2020/12/14 01:48:17;;;;;;;12.00;5.72;;;3.30;84.30;;;;;;5052053;28;20485;-45
2020/12/14 01:50:42;;;;;;;11.30;5.90;;;3.30;84.30;;;;;;5054036;28;20044;-44
2020/12/14 01:53:12;;;;;;;9.70;5.45;;;3.20;84.10;;;;;;5053773;28;20029;-46
2020/12/14 01:55:42;;;;;;;9.38;4.93;;;3.20;84.20;;;;;;5053616;28;20029;-45
2020/12/14 01:58:09;;;;;;;12.70;5.30;;;3.20;84.20;;;;;;5053700;28;20033;-44
2020/12/14 02:00:35;;;;;;;12.45;5.68;;;3.10;84.60;;;;;;5053944;28;20040;-42
2020/12/14 02:03:01;;;;;;;10.23;5.63;;;3.20;84.60;;;;;;5053782;28;20120;-44
2020/12/14 02:05:27;;;;;;;8.85;4.78;;;3.20;84.50;;;;;;5038851;28;20405;-44
2020/12/14 02:07:53;;;;;;;10.20;5.10;;;3.20;84.20;;;;;;5033196;28;20033;-46
2020/12/14 02:10:19;;;;;;;10.77;6.10;;;3.20;83.90;;;;;;5033579;28;20030;-43
2020/12/14 02:12:45;;;;;;;10.25;5.07;;;3.10;84.00;;;;;;5033785;28;20067;-44
2020/12/14 02:15:11;;;;;;;8.75;4.97;;;3.10;84.30;;;;;;5032767;28;20068;-47
2020/12/14 02:17:36;;;;;;;10.63;5.30;;;3.10;84.50;;;;;;5033149;28;20068;-47
2020/12/14 02:20:04;;;;;;;11.02;4.95;;;3.10;84.60;;;;;;5033315;28;20108;-44
2020/12/14 02:22:30;;;;;;;9.40;4.95;;;3.10;84.70;;;;;;5052365;28;20033;-44
2020/12/14 02:24:56;;;;;;;11.45;5.47;;;3.10;84.60;;;;;;5051729;28;20083;-44
2020/12/14 02:27:24;;;;;;;12.77;5.50;;;3.00;84.80;;;;;;5053411;28;20033;-44
2020/12/14 02:29:49;;;;;;;9.68;5.47;;;2.90;85.40;;;;;;5053162;28;20029;-46
2020/12/14 02:32:17;;;;;;;11.40;6.10;;;2.90;85.70;;;;;;5053350;28;20033;-43
2020/12/14 02:34:43;;;;;;;10.55;5.13;;;2.90;86.10;;;;;;5053354;28;20065;-43
2020/12/14 02:37:10;;;;;;;10.85;5.68;;;3.00;86.00;;;;;;5052478;28;20037;-43
2020/12/14 02:39:38;;;;;;;12.15;5.07;;;3.00;85.90;;;;;;5052742;28;20029;-45
2020/12/14 02:42:08;;;;;;;10.02;5.63;;;3.00;85.70;;;;;;5052928;28;20385;-44
2020/12/14 02:44:34;;;;;;;12.88;5.60;;;3.00;85.50;;;;;;5053018;28;20047;-45
2020/12/14 02:47:00;;;;;;;10.82;5.65;;;3.00;85.70;;;;;;5052740;28;20044;-43
2020/12/14 02:49:26;;;;;;;14.50;5.57;;;3.00;85.40;;;;;;5051771;28;20036;-46
2020/12/14 02:51:52;;;;;;;11.13;5.75;;;3.00;85.30;;;;;;5052781;28;20044;-44
2020/12/14 02:54:18;;;;;;;11.05;6.13;;;3.00;85.60;;;;;;5051839;28;20033;-46
2020/12/14 02:56:44;;;;;;;13.10;6.30;;;3.10;85.60;;;;;;5051579;28;20052;-43
2020/12/14 02:59:13;;;;;;;14.50;5.95;;;3.20;85.40;;;;;;5051334;28;20029;-45
2020/12/14 03:01:39;;;;;;;9.32;5.35;;;3.10;85.10;;;;;;5052800;28;20033;-43
2020/12/14 03:04:06;;;;;;;11.05;6.22;;;3.10;85.00;;;;;;5049413;28;20033;-47
2020/12/14 03:06:32;;;;;;;12.10;6.50;;;3.10;85.00;;;;;;5032776;28;20437;-43
2020/12/14 03:08:57;;;;;;;14.00;6.60;;;2.90;85.20;;;;;;5032350;28;20057;-44
2020/12/14 03:11:24;;;;;;;15.80;7.20;;;2.70;86.50;;;;;;5033733;28;20186;-45
2020/12/14 03:13:50;;;;;;;13.63;7.20;;;2.50;87.60;;;;;;5032624;28;20057;-45
2020/12/14 03:16:17;;;;;;;15.20;7.10;;;2.40;88.20;;;;;;5032383;28;20092;-44
2020/12/14 03:18:43;;;;;;;15.13;7.57;;;2.50;88.60;;;;;;5034979;28;20037;-43
2020/12/14 03:21:09;;;;;;;14.38;6.60;;;2.50;88.00;;;;;;5052192;28;20047;-44
2020/12/14 03:23:34;;;;;;;11.02;6.15;;;2.50;87.70;;;;;;5052184;28;20072;-42
2020/12/14 03:26:00;;;;;;;11.75;6.40;;;2.60;87.60;;;;;;5052373;28;20064;-43
2020/12/14 03:28:26;;;;;;;11.95;7.03;;;2.70;87.30;;;;;;5050367;28;20036;-45
2020/12/14 03:30:53;;;;;;;12.88;6.38;;;2.80;87.00;;;;;;5032231;28;20523;-45
2020/12/14 03:33:19;;;;;;;15.52;6.00;;;2.80;86.80;;;;;;5032493;28;20065;-47
2020/12/14 03:35:47;;;;;;;13.70;6.38;;;2.80;86.40;;;;;;5031638;28;20485;-48
2020/12/14 03:38:13;;;;;;;10.88;5.47;;;2.80;86.40;;;;;;5030920;28;20132;-45
2020/12/14 03:40:39;;;;;;;15.15;6.53;;;2.90;86.30;;;;;;5032420;28;20036;-45
2020/12/14 03:43:05;;;;;;;12.20;6.95;;;3.00;86.10;;;;;;5032050;28;20037;-44
2020/12/14 03:45:31;;;;;;;14.13;6.40;;;3.00;85.80;;;;;;5032867;28;20499;-44
2020/12/14 03:47:57;;;;;;;13.32;6.38;;;2.90;85.60;;;;;;5031984;28;20032;-44
2020/12/14 03:50:23;;;;;;;11.77;6.30;;;2.90;85.60;;;;;;5031034;28;20037;-44
2020/12/14 03:52:48;;;;;;;10.80;6.25;;;2.90;85.40;;;;;;5030765;28;20433;-45
2020/12/14 03:55:14;;;;;;;11.95;6.18;;;2.90;85.40;;;;;;5031900;28;20095;-42
2020/12/14 03:57:40;;;;;;;11.50;6.47;;;2.90;85.30;;;;;;5039688;28;20033;-44
2020/12/14 04:00:07;;;;;;;10.38;6.38;;;2.90;85.20;;;;;;5051909;28;20072;-45
2020/12/14 04:02:32;;;;;;;10.40;5.70;;;2.80;85.30;;;;;;5050082;28;20475;-44
2020/12/14 04:04:58;;;;;;;12.65;5.45;;;2.80;85.20;;;;;;5041365;28;20116;-44
2020/12/14 04:07:24;;;;;;;9.77;5.45;;;2.70;85.20;;;;;;5030735;28;20440;-46
2020/12/14 04:09:50;;;;;;;11.70;6.47;;;2.70;85.10;;;;;;5032294;28;20048;-44
2020/12/14 04:12:16;;;;;;;12.23;6.38;;;2.60;85.50;;;;;;5030646;28;20034;-46
2020/12/14 04:14:41;;;;;;;11.93;6.30;;;2.40;86.60;;;;;;5031972;28;20021;-47
2020/12/14 04:17:07;;;;;;;12.43;6.50;;;2.30;87.20;;;;;;5031367;28;20061;-46
2020/12/14 04:19:33;;;;;;;13.52;6.10;;;2.30;87.30;;;;;;5034978;28;20124;-44
2020/12/14 04:21:59;;;;;;;12.90;6.95;;;2.40;87.00;;;;;;5051798;28;20029;-44
2020/12/14 04:24:26;;;;;;;14.45;6.55;;;2.40;86.90;;;;;;5051659;28;20396;-44
2020/12/14 04:26:55;;;;;;;12.18;6.50;;;2.50;86.90;;;;;;5050710;28;20033;-44
2020/12/14 04:29:21;;;;;;;16.40;6.55;;;2.60;86.70;;;;;;5051774;28;20032;-45
2020/12/14 04:31:49;;;;;;;12.23;7.10;;;2.50;86.30;;;;;;5054520;28;20032;-46
2020/12/14 04:34:14;;;;;;;10.60;6.18;;;2.60;86.40;;;;;;5053805;28;20086;-45
2020/12/14 04:36:44;;;;;;;11.48;6.28;;;2.70;86.10;;;;;;5054605;28;20484;-43
2020/12/14 04:39:10;;;;;;;13.40;7.07;;;2.70;85.80;;;;;;5055196;28;20029;-44
2020/12/14 04:41:36;;;;;;;10.63;6.03;;;2.70;85.70;;;;;;5054364;28;20040;-44
2020/12/14 04:44:02;;;;;;;13.30;6.20;;;2.70;85.80;;;;;;5054567;28;20408;-42
2020/12/14 04:46:29;;;;;;;13.63;6.90;;;2.70;85.50;;;;;;5055144;28;20025;-46
2020/12/14 04:48:56;;;;;;;13.73;7.22;;;2.70;85.70;;;;;;5054895;28;20033;-44
2020/12/14 04:51:22;;;;;;;15.73;6.85;;;2.70;85.60;;;;;;5055103;28;20492;-45
2020/12/14 04:53:47;;;;;;;13.38;6.60;;;2.60;85.30;;;;;;5054209;28;20033;-46
2020/12/14 04:56:20;;;;;;;18.55;8.02;;;2.60;85.40;;;;;;5055281;28;20051;-45
2020/12/14 04:58:46;;;;;;;14.18;6.53;;;2.50;85.60;;;;;;5055294;28;20033;-48
2020/12/14 05:01:11;;;;;;;9.63;5.13;;;2.60;85.40;;;;;;5054642;28;20450;-48
2020/12/14 05:03:37;;;;;;;13.77;6.38;;;2.50;85.60;;;;;;5054733;28;20048;-44
2020/12/14 05:06:03;;;;;;;10.73;5.50;;;2.50;86.00;;;;;;5035276;28;20053;-47
2020/12/14 05:08:32;;;;;;;15.00;6.15;;;2.60;85.80;;;;;;5035542;28;20034;-46
2020/12/14 05:10:58;;;;;;;9.75;5.00;;;2.50;85.40;;;;;;5035245;28;20124;-44
2020/12/14 05:13:28;;;;;;;9.82;5.53;;;2.50;85.30;;;;;;5032571;28;20194;-44
2020/12/14 05:15:54;;;;;;;10.68;5.35;;;2.60;85.60;;;;;;5034319;28;20062;-45
2020/12/14 05:18:23;;;;;;;9.93;5.18;;;2.50;85.40;;;;;;5034188;28;20040;-47
2020/12/14 05:21:05;;;;;;;11.52;5.28;;;2.50;85.40;;;;;;5034940;28;20079;-47
2020/12/14 05:23:32;;;;;;;9.23;5.20;;;2.50;85.30;;;;;;5034537;28;20076;-44
2020/12/14 05:26:07;;;;;;;11.30;5.15;;;2.50;85.50;;;;;;5034439;28;20485;-44
2020/12/14 05:28:34;;;;;;;10.00;5.47;;;2.50;85.30;;;;;;5045516;28;20028;-43
2020/12/14 05:31:00;;;;;;;11.50;5.30;;;2.40;85.30;;;;;;5054026;28;20037;-45
2020/12/14 05:33:28;;;;;;;17.75;5.70;;;2.40;85.30;;;;;;5053127;28;20036;-44
2020/12/14 05:35:54;;;;;;;8.98;4.97;;;2.30;85.50;;;;;;5054244;28;20171;-43
2020/12/14 05:38:23;;;;;;;8.18;4.78;;;2.30;85.60;;;;;;5054016;28;20025;-46
2020/12/14 05:40:57;;;;;;;9.25;5.10;;;2.30;85.80;;;;;;5054254;28;20029;-45
2020/12/14 05:43:28;;;;;;;8.75;5.03;;;2.30;85.90;;;;;;5053364;28;20029;-45
2020/12/14 05:45:54;;;;;;;10.00;5.28;;;2.30;86.00;;;;;;5051971;28;20037;-44
2020/12/14 05:48:28;;;;;;;13.13;5.32;;;2.30;86.00;;;;;;5053961;28;20032;-43
2020/12/14 05:51:02;;;;;;;10.23;5.60;;;2.40;86.00;;;;;;5054118;28;20036;-49
2020/12/14 05:53:39;;;;;;;7.68;4.55;;;2.30;85.60;;;;;;5054059;28;20103;-45
2020/12/14 05:56:07;;;;;;;10.00;4.97;;;2.30;85.60;;;;;;5053637;28;20025;-44
2020/12/14 05:58:36;;;;;;;8.43;4.95;;;2.30;85.90;;;;;;5053888;28;20031;-44
2020/12/14 06:01:04;;;;;;;10.20;5.28;;;2.20;86.10;;;;;;5053693;28;20143;-43
2020/12/14 06:03:30;;;;;;;10.57;5.38;;;2.30;86.00;;;;;;5052786;28;20087;-42
2020/12/14 06:06:13;;;;;;;14.98;8.18;;;2.20;86.00;;;;;;5035346;28;20417;-46
2020/12/14 06:08:45;;;;;;;14.93;7.63;;;2.20;86.80;;;;;;5033653;28;20108;-45
2020/12/14 06:11:15;;;;;;;11.90;5.50;;;2.00;87.30;;;;;;5033662;28;20395;-44
2020/12/14 06:13:46;;;;;;;9.75;5.45;;;2.20;87.20;;;;;;5034130;28;20029;-44
2020/12/14 06:16:24;;;;;;;11.70;5.85;;;2.20;87.10;;;;;;5033039;28;20626;-44
2020/12/14 06:18:50;;;;;;;11.98;5.47;;;2.20;87.00;;;;;;5037175;28;20031;-45
2020/12/14 06:21:35;;;;;;;10.32;5.22;;;2.30;86.90;;;;;;5052930;28;20040;-46
2020/12/14 06:24:05;;;;;;;8.25;5.30;;;2.30;86.40;;;;;;5053054;28;20420;-47
2020/12/14 06:26:32;;;;;;;9.70;5.32;;;2.20;86.40;;;;;;5053395;28;20032;-45
2020/12/14 06:28:58;;;;;;;10.40;5.47;;;2.30;86.60;;;;;;5053207;28;20024;-45
2020/12/14 06:31:35;;;;;;;11.98;5.60;;;2.40;86.50;;;;;;5051319;28;20119;-44
2020/12/14 06:34:05;;;;;;;11.88;5.03;;;2.40;86.20;;;;;;5053302;28;20028;-46
2020/12/14 06:36:41;;;;;;;9.20;5.07;;;2.40;86.00;;;;;;5051552;28;20370;-47
2020/12/14 06:39:28;;;;;;;13.05;6.05;;;2.40;85.60;;;;;;5053050;28;20052;-44
2020/12/14 06:42:14;;;;;;;12.18;5.70;;;2.30;85.80;;;;;;5052932;28;20053;-46
2020/12/14 06:44:43;;;;;;;18.08;8.45;;;2.30;86.10;;;;;;5052003;28;20053;-46
2020/12/14 06:47:16;;;;;;;12.18;5.43;;;2.40;86.10;;;;;;5052738;28;20033;-44
2020/12/14 06:49:43;;;;;;;12.85;5.97;;;2.40;85.80;;;;;;5051670;28;20029;-45
2020/12/14 06:52:09;;;;;;;12.00;5.80;;;2.30;85.90;;;;;;5051304;28;20031;-44
2020/12/14 06:54:47;;;;;;;13.25;5.50;;;2.30;86.10;;;;;;5051368;28;20053;-44
2020/12/14 06:57:15;;;;;;;11.95;5.93;;;2.40;86.30;;;;;;5052238;28;20111;-43
2020/12/14 06:59:49;;;;;;;14.02;6.95;;;2.50;86.30;;;;;;5052960;28;20558;-43
2020/12/14 07:02:15;;;;;;;12.30;6.50;;;2.60;86.20;;;;;;5052365;28;20124;-44
2020/12/14 07:04:44;;;;;;;13.30;6.25;;;2.60;86.00;;;;;;5044466;28;20112;-43
2020/12/14 07:07:10;;;;;;;10.07;5.30;;;2.50;85.70;;;;;;5032340;28;20082;-47
2020/12/14 07:09:38;;;;;;;10.57;5.50;;;2.50;85.80;;;;;;5033194;28;20037;-47
2020/12/14 07:12:09;;;;;;;12.43;6.18;;;2.50;85.90;;;;;;5032372;28;20083;-45
2020/12/14 07:14:46;;;;;;;11.05;5.50;;;2.60;86.00;;;;;;5032951;28;20485;-46
2020/12/14 07:17:17;;;;;;;10.98;5.40;;;2.70;86.10;;;;;;5032547;28;20052;-44
2020/12/14 07:19:48;;;;;;;12.02;5.63;;;2.80;85.90;;;;;;5032831;28;20112;-44
2020/12/14 07:22:18;;;;;;;11.35;6.32;;;2.80;85.40;;;;;;5032795;28;20596;-46
2020/12/14 07:24:49;;;;;;;13.77;7.45;;;2.80;85.60;;;;;;5031242;28;20053;-47
2020/12/14 07:27:14;;;;;;;11.70;5.95;;;2.90;85.70;;;;;;5039244;28;20139;-51
2020/12/14 07:29:40;;;;;;;11.18;5.60;;;3.00;85.60;;;;;;5052200;28;20385;-49
2020/12/14 07:32:06;;;;;;;12.43;6.10;;;3.00;85.40;;;;;;5050695;28;20029;-45
2020/12/14 07:34:32;;;;;;;16.10;6.97;;;3.10;85.30;;;;;;5052133;28;20029;-49
2020/12/14 07:36:58;;;;;;;12.48;7.10;;;3.20;85.10;;;;;;5052409;28;20033;-47
2020/12/14 07:39:24;;;;;;;13.02;6.68;;;3.20;85.10;;;;;;5051990;28;20033;-46
2020/12/14 07:41:50;;;;;;;13.60;7.30;;;3.20;85.00;;;;;;5052268;28;20033;-45
2020/12/14 07:44:16;;;;;;;15.48;6.43;;;3.30;85.10;;;;;;5049315;28;20497;-46
2020/12/14 07:46:43;;;;;;;10.18;6.43;;;3.30;85.00;;;;;;5051918;28;20200;-46
2020/12/14 07:49:10;;;;;;;11.32;6.03;;;3.30;85.10;;;;;;5051819;28;20025;-44
2020/12/14 07:51:40;;;;;;;14.13;7.43;;;3.40;85.00;;;;;;5050892;28;20547;-45
2020/12/14 07:54:14;;;;;;;19.23;9.38;;;3.40;85.50;;;;;;5051891;28;20037;-47
2020/12/14 07:56:45;;;;;;;16.20;6.63;;;3.50;85.20;;;;;;5052521;28;20413;-47
2020/12/14 07:59:21;;;;;;;12.25;7.10;;;3.50;84.90;;;;;;5051591;28;20385;-47
2020/12/14 08:01:48;;;;;;;15.25;7.53;;;3.50;84.80;;;;;;5051160;28;20098;-47
2020/12/14 08:04:24;;;;;;;13.88;6.53;;;3.50;84.70;;;;;;5047596;28;20040;-48
2020/12/14 08:06:51;;;;;;;14.30;7.38;;;3.70;84.70;;;;;;5035623;28;20033;-44
2020/12/14 08:09:22;;;;;;;14.80;7.25;;;3.70;84.20;;;;;;5034549;28;20034;-45
2020/12/14 08:11:49;;;;;;;17.75;7.75;;;3.70;83.80;;;;;;5035869;28;20033;-46
2020/12/14 08:14:17;;;;;;;14.90;7.50;;;3.70;83.60;;;;;;5035613;28;20523;-49
2020/12/14 08:16:48;;;;;;;15.02;7.57;;;3.70;83.60;;;;;;5035745;28;20057;-45
2020/12/14 08:19:15;;;;;;;14.88;7.70;;;3.90;83.30;;;;;;5052466;28;20036;-47
2020/12/14 08:21:41;;;;;;;13.80;7.60;;;4.00;83.10;;;;;;5055980;28;20495;-46
2020/12/14 08:24:10;;;;;;;16.98;7.30;;;4.10;82.70;;;;;;5055231;28;20048;-49
2020/12/14 08:26:38;;;;;;;15.45;7.30;;;4.20;82.20;;;;;;5055512;28;20029;-44
2020/12/14 08:29:04;;;;;;;13.48;6.53;;;4.30;81.50;;;;;;5055604;28;20115;-46
2020/12/14 08:31:29;;;;;;;15.00;6.72;;;4.20;81.00;;;;;;5054059;28;20438;-45
2020/12/14 08:33:56;;;;;;;16.02;7.28;;;4.10;81.10;;;;;;5055772;28;20041;-46
2020/12/14 08:36:25;;;;;;;16.00;7.60;;;4.20;81.40;;;;;;5053131;28;20068;-44
2020/12/14 08:38:51;;;;;;;16.95;7.50;;;4.20;81.30;;;;;;5055422;28;20036;-45
2020/12/14 08:41:23;;;;;;;13.52;6.50;;;4.20;81.20;;;;;;5053625;28;20028;-45
2020/12/14 08:43:53;;;;;;;15.80;6.90;;;4.20;81.20;;;;;;5055034;28;20071;-46
2020/12/14 08:46:20;;;;;;;15.95;7.80;;;4.00;82.10;;;;;;5055206;28;20029;-46
2020/12/14 08:48:51;;;;;;;15.27;7.60;;;4.00;83.40;;;;;;5055704;28;20128;-45
2020/12/14 08:51:23;;;;;;;18.85;7.38;;;4.00;83.90;;;;;;5054058;28;20029;-44
2020/12/14 08:53:50;;;;;;;14.52;7.78;;;4.20;83.90;;;;;;5055012;28;20484;-44
2020/12/14 08:56:18;;;;;;;17.15;7.55;;;4.20;84.00;;;;;;5054999;28;20481;-44
2020/12/14 08:58:51;;;;;;;17.05;7.95;;;4.30;84.30;;;;;;5055106;28;20044;-46
2020/12/14 09:01:19;;;;;;;15.88;7.88;;;4.50;84.20;;;;;;5054869;28;20025;-46
2020/12/14 09:03:49;;;;;;;15.50;7.82;;;4.80;83.90;;;;;;5054580;28;20049;-47
2020/12/14 09:06:40;;;;;;;15.85;8.00;;;5.10;83.40;;;;;;5034466;28;20022;-45
2020/12/14 09:09:08;;;;;;;16.88;7.95;;;5.40;82.70;;;;;;5035653;28;20036;-46
2020/12/14 09:11:47;;;;;;;14.85;7.88;;;5.60;81.70;;;;;;5035050;28;20037;-44
2020/12/14 09:14:45;;;;;;;13.15;7.40;;;5.70;80.90;;;;;;5034494;28;20034;-44
2020/12/14 09:17:14;;;;;;;18.00;7.78;;;6.10;79.60;;;;;;5032043;28;20045;-45
2020/12/14 09:19:41;;;;;;;15.27;7.00;;;6.20;79.40;;;;;;5034847;28;20482;-45
2020/12/14 09:22:10;;;;;;;19.42;7.53;;;6.40;79.10;;;;;;5049406;28;20428;-45
2020/12/14 09:24:36;;;;;;;17.48;8.52;;;6.70;78.10;;;;;;5054575;28;20033;-45
2020/12/14 09:27:10;;;;;;;16.33;6.93;;;6.70;77.40;;;;;;5038704;28;20091;-45
2020/12/14 09:29:37;;;;;;;20.55;7.97;;;6.70;77.70;;;;;;5034741;28;20505;-48
2020/12/14 09:32:04;;;;;;;15.57;7.38;;;6.80;78.00;;;;;;5034625;28;20033;-45
2020/12/14 09:34:30;;;;;;;18.02;7.55;;;7.00;78.10;;;;;;5033156;28;20790;-44
2020/12/14 09:36:58;;;;;;;17.40;7.78;;;7.10;78.30;;;;;;5034118;28;20084;-47
2020/12/14 09:39:26;;;;;;;16.27;7.40;;;7.10;77.70;;;;;;5034040;28;20032;-46
2020/12/14 09:41:55;;;;;;;16.08;8.20;;;7.20;76.50;;;;;;5034254;28;20029;-47
2020/12/14 09:44:21;;;;;;;16.60;7.10;;;7.20;76.50;;;;;;5034496;28;20045;-47
2020/12/14 09:46:47;;;;;;;15.70;7.65;;;7.20;76.20;;;;;;5034478;28;20116;-45
2020/12/14 09:49:13;;;;;;;13.45;6.78;;;7.00;76.50;;;;;;5033779;28;20037;-49
2020/12/14 09:51:39;;;;;;;13.18;7.15;;;7.00;76.50;;;;;;5034197;28;20037;-46
2020/12/14 09:54:06;;;;;;;14.70;6.72;;;7.00;76.50;;;;;;5034076;28;20037;-45
2020/12/14 09:56:33;;;;;;;11.77;6.10;;;6.90;76.40;;;;;;5033674;28;20037;-47
2020/12/14 09:58:58;;;;;;;15.30;7.82;;;6.90;77.20;;;;;;5051892;28;20033;-48
2020/12/14 10:01:24;;;;;;;17.88;7.97;;;7.00;77.70;;;;;;5052930;28;20387;-52
2020/12/14 10:03:53;;;;;;;17.90;8.00;;;7.00;77.60;;;;;;5051775;28;20120;-46
2020/12/14 10:06:19;;;;;;;19.85;8.52;;;7.00;77.70;;;;;;5033471;28;20037;-50
2020/12/14 10:08:44;;;;;;;20.48;7.32;;;7.10;77.70;;;;;;5032663;28;20033;-45
2020/12/14 10:11:11;;;;;;;15.30;6.90;;;7.10;77.60;;;;;;5032238;28;20183;-45
2020/12/14 10:13:43;;;;;;;17.40;7.20;;;7.10;77.60;;;;;;5033813;28;20036;-44
2020/12/14 10:16:12;;;;;;;15.32;7.13;;;7.00;77.70;;;;;;5016576;28;20062;-45
2020/12/14 10:18:38;;;;;;;13.05;7.15;;;7.00;77.70;;;;;;5039965;28;20049;-48
2020/12/14 10:21:04;;;;;;;11.63;6.88;;;6.90;78.10;;;;;;5033647;28;20089;-46
2020/12/14 10:23:30;;;;;;;17.08;7.80;;;6.90;78.20;;;;;;5033089;28;20056;-47
2020/12/14 10:25:56;;;;;;;13.35;6.47;;;7.00;78.30;;;;;;5033301;28;20037;-46
2020/12/14 10:28:22;;;;;;;13.93;6.95;;;7.00;77.90;;;;;;5032988;28;20087;-44
2020/12/14 10:30:48;;;;;;;19.55;7.75;;;6.90;78.10;;;;;;5033493;28;20095;-48
2020/12/14 10:33:16;;;;;;;15.55;7.72;;;6.80;78.20;;;;;;5033668;28;20512;-47
2020/12/14 10:35:43;;;;;;;14.52;7.35;;;6.80;78.40;;;;;;5033137;28;20219;-44
2020/12/14 10:38:09;;;;;;;15.07;6.80;;;6.70;78.50;;;;;;5031797;28;20061;-48
2020/12/14 10:40:35;;;;;;;14.90;7.93;;;6.70;79.00;;;;;;5033010;28;20103;-48
2020/12/14 10:43:01;;;;;;;16.20;7.50;;;6.80;79.30;;;;;;5033214;28;20034;-46
2020/12/14 10:45:27;;;;;;;14.90;7.57;;;6.80;79.10;;;;;;5032542;28;20559;-47
2020/12/14 10:47:53;;;;;;;16.75;8.25;;;6.90;78.90;;;;;;5032998;28;20041;-45
2020/12/14 10:50:18;;;;;;;18.13;7.57;;;6.90;78.80;;;;;;5033200;28;20029;-46
2020/12/14 10:52:44;;;;;;;17.60;9.02;;;6.90;79.00;;;;;;5032987;28;20048;-46
2020/12/14 10:55:10;;;;;;;16.92;7.50;;;6.90;79.10;;;;;;5032657;28;20489;-48
2020/12/14 10:57:37;;;;;;;13.65;7.65;;;7.00;79.30;;;;;;5039408;28;20032;-47
2020/12/14 11:00:07;;;;;;;16.52;8.05;;;7.00;79.30;;;;;;5052708;28;20029;-46
2020/12/14 11:02:39;;;;;;;15.25;7.20;;;7.10;79.30;;;;;;5052700;28;20029;-44
2020/12/14 11:05:09;;;;;;;15.23;7.32;;;7.10;79.50;;;;;;5041727;28;20557;-46
2020/12/14 11:07:35;;;;;;;14.88;7.82;;;7.10;79.10;;;;;;5032851;28;20030;-49
2020/12/14 11:10:04;;;;;;;17.27;7.10;;;7.10;79.00;;;;;;5032597;28;20032;-44
2020/12/14 11:12:30;;;;;;;17.88;7.82;;;7.10;78.80;;;;;;5031037;28;20401;-45
2020/12/14 11:14:55;;;;;;;15.68;7.63;;;7.10;79.00;;;;;;5032530;28;20037;-44
2020/12/14 11:17:21;;;;;;;17.15;8.80;;;7.10;78.90;;;;;;5032027;28;20053;-47
2020/12/14 11:19:47;;;;;;;14.93;7.65;;;7.20;78.90;;;;;;5032507;28;20052;-46
2020/12/14 11:22:13;;;;;;;14.02;7.32;;;7.20;78.70;;;;;;5032365;28;20039;-49
2020/12/14 11:24:39;;;;;;;14.98;6.93;;;7.20;78.70;;;;;;5034960;28;20525;-44
2020/12/14 11:27:05;;;;;;;16.10;7.72;;;7.30;78.70;;;;;;5052432;28;20044;-47
2020/12/14 11:29:31;;;;;;;13.88;7.22;;;7.30;78.40;;;;;;5052284;28;20527;-47
2020/12/14 11:31:57;;;;;;;14.63;7.15;;;7.30;78.40;;;;;;5051054;28;20045;-45
2020/12/14 11:34:23;;;;;;;15.57;7.97;;;7.40;78.40;;;;;;5050853;28;20048;-43
2020/12/14 11:36:49;;;;;;;17.30;7.88;;;7.40;77.90;;;;;;5051454;28;20029;-46
2020/12/14 11:39:15;;;;;;;16.17;7.63;;;7.50;77.30;;;;;;5052157;28;20065;-45
2020/12/14 11:41:44;;;;;;;14.68;7.85;;;7.60;77.00;;;;;;5051258;28;20120;-47
2020/12/14 11:44:10;;;;;;;17.20;7.00;;;7.80;76.50;;;;;;5051668;28;20044;-46
2020/12/14 11:46:36;;;;;;;15.50;7.45;;;7.80;76.00;;;;;;5051863;28;20112;-49
2020/12/14 11:49:02;;;;;;;13.57;7.68;;;8.00;75.90;;;;;;5051952;28;20063;-45
2020/12/14 11:51:27;;;;;;;17.13;7.97;;;8.00;75.50;;;;;;5051672;28;20063;-44
2020/12/14 11:53:53;;;;;;;13.50;7.13;;;8.00;75.50;;;;;;5052024;28;20488;-47
2020/12/14 11:56:19;;;;;;;15.27;7.50;;;8.10;75.60;;;;;;5050671;28;20036;-49
2020/12/14 11:58:44;;;;;;;14.23;7.03;;;8.10;76.00;;;;;;5051174;28;20029;-46
2020/12/14 12:01:10;;;;;;;14.93;7.10;;;8.10;75.90;;;;;;5052185;28;20044;-44
2020/12/14 12:03:36;;;;;;;16.98;7.40;;;8.00;75.80;;;;;;5051649;28;20029;-45
2020/12/14 12:06:02;;;;;;;13.32;7.05;;;8.00;76.20;;;;;;5033061;28;20521;-45
2020/12/14 12:08:28;;;;;;;10.82;6.20;;;8.10;76.20;;;;;;5031669;28;20048;-44
2020/12/14 12:10:53;;;;;;;16.60;7.97;;;8.20;75.70;;;;;;5031784;28;20091;-44
2020/12/14 12:13:19;;;;;;;11.93;6.68;;;8.20;75.50;;;;;;5032118;28;20033;-45
2020/12/14 12:15:46;;;;;;;13.55;6.80;;;8.20;74.80;;;;;;5032267;28;20428;-45
2020/12/14 12:18:11;;;;;;;12.05;6.60;;;8.10;75.10;;;;;;5030849;28;20029;-45
2020/12/14 12:20:38;;;;;;;12.20;7.03;;;8.00;74.50;;;;;;5033852;28;20041;-44
2020/12/14 12:23:04;;;;;;;14.95;7.45;;;7.90;74.70;;;;;;5051875;28;20025;-46
2020/12/14 12:25:30;;;;;;;11.85;7.05;;;7.90;75.60;;;;;;5051586;28;20052;-46
2020/12/14 12:27:56;;;;;;;14.65;7.22;;;7.90;75.70;;;;;;5051743;28;20029;-49
2020/12/14 12:30:21;;;;;;;11.07;7.00;;;7.70;75.90;;;;;;5051534;28;20431;-46
2020/12/14 12:32:47;;;;;;;10.95;6.50;;;7.70;76.30;;;;;;5046484;28;20116;-50
2020/12/14 12:35:14;;;;;;;15.05;7.40;;;7.60;76.40;;;;;;5031789;28;20083;-47
2020/12/14 12:37:40;;;;;;;12.05;7.32;;;7.60;76.40;;;;;;5013545;28;20137;-53
2020/12/14 12:40:09;;;;;;;13.38;7.35;;;7.50;76.80;;;;;;5031821;28;20103;-45
2020/12/14 12:42:35;;;;;;;10.80;6.85;;;7.60;76.70;;;;;;5031514;28;20029;-45
2020/12/14 12:45:02;;;;;;;14.18;7.28;;;7.60;76.90;;;;;;5031396;28;20521;-45
2020/12/14 12:47:28;;;;;;;13.23;7.55;;;7.60;77.00;;;;;;5030284;28;20402;-44
2020/12/14 12:49:54;;;;;;;13.77;7.32;;;7.70;76.80;;;;;;5030656;28;20030;-47